Arco, ID

6:37 AM MDT on October 22, 2014 (GMT -0600)
RAWS ARCO ID US | Change Station
CLOSE
Current Station
Personal Weather Station
Location: Arco, ID
Elevation: 5417 ft
Nearby Weather Stations

Elev 5417 ft 43.62 °N, 113.39 °W | Updated 50 minutes ago

Clear
Clear
31 °F
Feels Like 25 °F
N
6
Wind Variable Wind from NE
Gusts 9.0 mph

Today
High -- | Low -- °F
--% Chance of Precip.
Yesterday
High -- | Low -- °F
Precip. -- in
7:56 AM 6:38 PM
Waning Crescent, 2% visible
Pressure 30.17 in
Visibility 10.0 miles
Clouds Clear
Windchill 25 °F
Dew Point 26 °F
Humidity 82%
Rainfall 0.00 in
Snow Depth Not available.
UV 0 out of 12
Pollen 2.40 out of 12
Air Quality Not available.
Flu Activity Sporadic
METAR KSUN 221215Z AUTO 32008KT 10SM CLR 00/M02 A3017 RMK AO2

More Conditions Fewer Conditions

Pressure 30.17 in
Visibility 10.0 miles
Clouds Clear
Windchill 25 °F
Dew Point 26 °F
Humidity 82%
Rainfall 0.00 in
Snow Depth Not available.
UV 0 out of 12
Pollen 2.40 out of 12
Air Quality Not available.
Flu Activity Sporadic
METAR KSUN 221215Z AUTO 32008KT 10SM CLR 00/M02 A3017 RMK AO2

More Conditions Fewer Conditions

10-Day Weather Forecast

Almanac

Astronomy

Oct. 22, 2014 Rise Set
Actual Time 7:56 AM MDT 6:38 PM MDT
Civil Twilight 7:26 AM MDT 7:07 PM MDT
Nautical Twilight 6:53 AM MDT 7:41 PM MDT
Astronomical Twilight 6:20 AM MDT 8:14 PM MDT
Moon 6:39 AM MDT 6:08 PM MDT
Length of Visible Light 11h 40m
Length of Day
10h 42m
Tomorrow will be 2m 49s shorter.
Waning Crescent, 2% of the Moon is Illuminated
Today
Waning Crescent
Oct 23
New
Oct 30
First Quarter
Nov 6
Full
Nov 14
Last Quarter

Today's Extremes

State Highs State Lows

Community

WunderPhotos

Upload Photos

1,763,907 photos uploaded!

Nearby

Snow Depth

Station Depth Elevation
Hilts Creek 0 in 8000 ft
Bear Canyon 0 in 7900 ft
Swede Peak 1 in 7640 ft
Hyndman 1 in 7440 ft
Lost-Wood Divide 1 in 7900 ft

Earthquake Activity

City Distance Mag. Time & Date
No recent earthquake activity has been reported nearby.
Minimum magnitude displayed is 2.5.

Coastal Water Temperatures

Place Temperature
No Stations Reporting

Nearby Weather Stations